Crystal, Nevada
Current Conditions -  °F | °C
As of 10:52 AM on Friday 24 Oct 2014 (Local Time) from KDRA Reporting Station
Clear Clear  
Wind Chill: 76°   Ceiling: Unl
Heat Index: 76°   Visibility: 10mi
Dew Point: 34°   Wind: 0mph
Humidity: 22%   Direction: NA
Pressure: 30.14"   Gusts: NA
Location:  36.2552°N, 116.039°W
Report Text: KDRA 241752Z AUTO 00000KT 10SM CLR 24/01 A3014 RMK AO2 SLP171 T02440011 10244 20100 50003
Loading
Personal Weather Stations






























Interactive Weather Map
Tropical Storm Tracking
New forecast layout! Learn more

10-Day Weather Forecast

Advertisements
Track Severe Weather on mobile